Airfield :
LOGIN :

Register | Disclaimer

   EN    FR    IT 

 










Legend :    VFR   Marginal VFR   IFR   Intensive IFR   Very Intensive IFR
Visi :
Ceiling :
>= 8 km
>= 3000ft
5 to 8 km
1000 to 3000 ft
1500m to 5 km
500 to 1000 ft
800 to 1500m
200 to 500 ft
< 800m
< 200 ft
Symbols :   Thunderstorms  Fog  Heavy snow  Heavy precipitations  Wind > 20 kt
SIGMETs :     Misc.  Thunderstorms  Icing  Turbulence  Mountain Waves  Volcanic Ashes






- Airport Elevation : 659 ft
- IATA code : LYN


LFLY - Lyon Bron

CURRENT METAR :
  • 082230Z AUTO 32005KT CAVOK 05/02 Q1006 NOSIG

EXPIRED METARs :
  • 082200Z AUTO 31004KT 280V350 CAVOK 05/02 Q1006 NOSIG
  • 082130Z AUTO VRB01KT 9999 FEW037 BKN056 OVC074 04/03 Q1005 NOSIG
  • 082100Z AUTO 00000KT 9999 FEW027 BKN066 OVC080 04/03 Q1005 NOSIG
  • 082030Z AUTO 35003KT 9999 BKN030 OVC049 05/03 Q1005 NOSIG
  • 082000Z AUTO VRB03KT 9999 BKN031 BKN037 BKN044 05/03 Q1005 TEMPO 3000 SHRA BKN014TCU

TAF TAF LFLY
Valid from the 08 at 18:00 until the 09 at 18:00 UTC


081700Z 0818/0918 33006KT 9999 BKN030
TEMPO 0818/0821 3000 SHRA BKN014TCU
PROB40
TEMPO 0903/0912 4000 -RADZ BKN014
PROB30
TEMPO 0904/0909 -RASN BKN009
TEMPO 0909/0916 10005KT
BECMG 0916/0918 18008KT CAVOK
ATIS : +33 4 72 15 87 96



MET'MAP, your aeronautical weather chart ! - Copyright ORBIFLY December 2007 - Disclaimer

ORBIFLY MET'MAP TEAM :

Programming & Development : Alexandra Zaïnal
Concept & original design : Baudouin d'Aumeries
Assistance for programming : Marc-Olivier Méhu
Technical & hardware support : Manuel Goepfert

Contact : metmap@orbifly.com




SOURCES & CREDITS :

   NOAA